createdAt,value
2018-12-26T00:02:24.410Z,84.95
2018-12-26T00:04:54.699Z,84.35
2018-12-26T00:07:25.028Z,84.47
2018-12-26T00:10:14.452Z,84.10
2018-12-26T00:12:44.884Z,84.60
2018-12-26T00:15:15.177Z,83.25
2018-12-26T00:17:45.437Z,82.72
2018-12-26T00:20:17.367Z,82.80
2018-12-26T00:22:47.634Z,80.95
2018-12-26T00:25:18.011Z,83.75
2018-12-26T00:27:48.378Z,82.72
2018-12-26T00:30:18.738Z,82.20
2018-12-26T00:32:49.058Z,81.72
2018-12-26T00:35:19.429Z,80.17
2018-12-26T00:37:49.760Z,78.90
2018-12-26T00:40:20.114Z,80.75
2018-12-26T00:42:50.374Z,78.22
2018-12-26T00:45:20.727Z,77.30
2018-12-26T00:47:51.058Z,77.78
2018-12-26T00:50:21.388Z,76.72
2018-12-26T00:52:51.657Z,74.37
2018-12-26T00:55:21.917Z,74.87
2018-12-26T00:57:52.174Z,77.05
2018-12-26T01:00:22.512Z,75.37
2018-12-26T01:02:52.828Z,72.97
2018-12-26T01:05:23.114Z,72.97
2018-12-26T01:07:53.407Z,72.65
2018-12-26T01:10:23.656Z,73.00
2018-12-26T01:12:54.004Z,71.35
2018-12-26T01:15:24.332Z,69.62
2018-12-26T01:17:54.623Z,71.50
2018-12-26T01:20:24.882Z,72.25
2018-12-26T01:22:55.162Z,69.40
2018-12-26T01:25:25.422Z,68.47
2018-12-26T01:27:55.776Z,66.82
2018-12-26T01:30:26.131Z,66.07
2018-12-26T01:32:56.404Z,67.17
2018-12-26T01:35:26.696Z,67.53
2018-12-26T01:37:57.028Z,65.37
2018-12-26T01:40:27.406Z,63.45
2018-12-26T01:42:57.729Z,64.92
2018-12-26T01:45:28.016Z,63.92
2018-12-26T01:47:58.347Z,62.40
2018-12-26T01:50:28.623Z,62.33
2018-12-26T01:52:58.941Z,61.75
2018-12-26T01:55:29.218Z,59.50
2018-12-26T01:57:59.474Z,60.28
2018-12-26T02:00:29.834Z,60.38
2018-12-26T02:03:00.091Z,59.27
2018-12-26T02:05:30.407Z,59.05
2018-12-26T02:08:00.660Z,57.60
2018-12-26T02:10:31.019Z,55.98
2018-12-26T02:13:01.354Z,58.65
2018-12-26T02:15:31.653Z,54.00
2018-12-26T02:18:21.055Z,56.18
2018-12-26T02:20:51.391Z,54.45
2018-12-26T02:23:21.717Z,56.15
2018-12-26T02:25:52.000Z,53.45
2018-12-26T02:28:22.262Z,54.13
2018-12-26T02:30:52.520Z,52.73
2018-12-26T02:33:22.885Z,51.05
2018-12-26T02:35:53.202Z,53.10
2018-12-26T02:38:23.494Z,49.95
2018-12-26T02:40:53.746Z,51.30
2018-12-26T02:43:24.099Z,49.67
2018-12-26T02:45:54.372Z,50.00
2018-12-26T02:48:24.664Z,48.70
2018-12-26T02:50:54.933Z,49.27
2018-12-26T02:53:25.235Z,46.60
2018-12-26T02:55:55.496Z,48.33
2018-12-26T02:58:25.781Z,45.92
2018-12-26T03:00:56.108Z,45.28
2018-12-26T03:03:26.490Z,45.90
2018-12-26T03:05:56.842Z,45.67
2018-12-26T03:08:27.119Z,44.25
2018-12-26T03:10:57.446Z,42.70
2018-12-26T03:13:27.734Z,43.30
2018-12-26T03:15:57.999Z,43.02
2018-12-26T03:18:28.333Z,44.53
2018-12-26T03:20:58.678Z,40.75
2018-12-26T03:23:48.018Z,42.13
2018-12-26T03:26:18.314Z,41.45
2018-12-26T03:28:48.580Z,41.65
2018-12-26T03:31:20.479Z,41.25
2018-12-26T03:33:50.809Z,41.33
2018-12-26T03:36:40.104Z,38.88
2018-12-26T03:39:10.385Z,38.40
2018-12-26T03:41:40.679Z,37.73
2018-12-26T03:44:10.960Z,37.53
2018-12-26T03:46:41.288Z,37.40
2018-12-26T03:49:11.632Z,36.30
2018-12-26T03:51:41.958Z,38.67
2018-12-26T03:54:12.302Z,36.33
2018-12-26T03:56:42.562Z,35.95
2018-12-26T03:59:12.914Z,35.60
2018-12-26T04:01:43.235Z,37.08
2018-12-26T04:04:13.531Z,35.50
2018-12-26T04:06:43.849Z,34.33
2018-12-26T04:09:14.123Z,36.25
2018-12-26T04:11:44.483Z,34.73
2018-12-26T04:14:16.358Z,36.00
2018-12-26T04:16:46.873Z,34.40
2018-12-26T04:19:17.230Z,32.93
2018-12-26T04:21:47.530Z,32.70
2018-12-26T04:24:17.794Z,33.15
2018-12-26T04:26:48.076Z,32.70
2018-12-26T04:29:18.327Z,31.85
2018-12-26T04:31:48.677Z,31.70
2018-12-26T04:34:19.006Z,31.02
2018-12-26T04:36:49.299Z,31.07
2018-12-26T04:42:29.636Z,30.20
2018-12-26T04:44:59.961Z,30.05
2018-12-26T04:47:30.245Z,29.63
2018-12-26T04:50:00.575Z,28.90
2018-12-26T04:52:31.123Z,28.10
2018-12-26T04:55:01.379Z,30.37
2018-12-26T04:57:31.726Z,28.90
2018-12-26T05:00:20.825Z,28.92
2018-12-26T05:02:51.156Z,27.17
2018-12-26T05:05:21.415Z,28.00
2018-12-26T05:07:51.745Z,26.77
2018-12-26T05:10:22.195Z,26.30
2018-12-26T05:12:52.435Z,27.15
2018-12-26T05:15:22.715Z,26.70
2018-12-26T05:17:53.049Z,26.57
2018-12-26T05:20:23.416Z,24.60
2018-12-26T05:22:53.739Z,23.92
2018-12-26T05:25:24.036Z,24.82
2018-12-26T05:27:54.359Z,24.35
2018-12-26T05:30:24.724Z,23.65
2018-12-26T05:32:55.008Z,23.40
2018-12-26T05:35:25.261Z,23.22
2018-12-26T05:37:55.627Z,22.25
2018-12-26T05:40:25.891Z,23.40
2018-12-26T05:42:56.163Z,23.00
2018-12-26T05:45:26.423Z,23.77
2018-12-26T05:47:56.707Z,21.50
2018-12-26T05:50:27.036Z,22.45
2018-12-26T05:52:57.389Z,22.32
2018-12-26T05:55:27.718Z,22.07
2018-12-26T05:57:58.004Z,21.70
2018-12-26T06:00:28.351Z,21.40
2018-12-26T06:02:58.671Z,21.12
2018-12-26T06:05:29.016Z,20.88
2018-12-26T06:07:59.279Z,21.40
2018-12-26T06:10:29.567Z,20.30
2018-12-26T06:12:59.822Z,19.75
2018-12-26T06:15:30.102Z,19.32
2018-12-26T06:18:00.380Z,23.40
2018-12-26T06:20:30.666Z,31.73
2018-12-26T06:23:00.991Z,33.38
2018-12-26T06:25:31.275Z,47.78
2018-12-26T06:28:01.552Z,40.03
2018-12-26T06:30:31.811Z,41.55
2018-12-26T06:33:02.149Z,43.25
2018-12-26T06:35:32.493Z,47.98
2018-12-26T06:38:02.815Z,59.20
2018-12-26T06:40:33.111Z,53.13
2018-12-26T06:43:03.437Z,93.97
2018-12-26T06:45:33.723Z,98.03
2018-12-26T06:48:04.051Z,84.90
2018-12-26T06:50:34.315Z,67.72
2018-12-26T06:53:04.573Z,63.63
2018-12-26T06:55:34.836Z,62.67
2018-12-26T06:58:05.178Z,61.37
2018-12-26T07:00:35.446Z,59.23
2018-12-26T07:03:05.704Z,58.28
2018-12-26T07:05:35.970Z,62.83
2018-12-26T07:08:06.303Z,72.72
2018-12-26T07:10:36.628Z,85.40
2018-12-26T07:13:06.920Z,89.70
2018-12-26T07:15:37.191Z,95.20
2018-12-26T07:18:07.501Z,84.20
2018-12-26T07:20:37.763Z,80.55
2018-12-26T07:23:08.118Z,79.20
2018-12-26T07:25:38.446Z,78.25
2018-12-26T07:28:09.498Z,74.90
2018-12-26T07:30:46.120Z,74.25
2018-12-26T07:33:16.449Z,70.57
2018-12-26T07:35:46.737Z,75.15
2018-12-26T07:38:18.607Z,80.17
2018-12-26T07:40:48.958Z,81.28
2018-12-26T07:43:19.286Z,81.35
2018-12-26T07:45:49.668Z,79.32
2018-12-26T07:48:19.920Z,83.50
2018-12-26T07:50:50.216Z,76.28
2018-12-26T07:53:20.555Z,86.35
2018-12-26T07:55:50.840Z,91.22
2018-12-26T07:58:21.179Z,89.52
2018-12-26T08:00:51.468Z,128.75
2018-12-26T08:03:21.743Z,136.85
2018-12-26T08:05:52.049Z,111.65
2018-12-26T08:08:22.397Z,123.02
2018-12-26T08:10:52.776Z,104.10
2018-12-26T08:13:23.211Z,94.35
2018-12-26T08:15:53.563Z,91.08
2018-12-26T08:18:23.930Z,84.50
2018-12-26T08:20:54.222Z,80.90
2018-12-26T08:23:24.868Z,81.40
2018-12-26T08:25:55.226Z,69.87
2018-12-26T08:28:26.806Z,77.75
2018-12-26T08:31:02.955Z,73.72
2018-12-26T08:33:33.286Z,87.67
2018-12-26T08:36:03.664Z,86.63
2018-12-26T08:38:34.022Z,92.60
2018-12-26T08:41:04.282Z,100.27
2018-12-26T08:43:34.681Z,106.70
2018-12-26T08:46:05.101Z,104.15
2018-12-26T08:48:37.302Z,98.22
2018-12-26T08:51:07.695Z,92.62
2018-12-26T08:53:38.005Z,94.22
2018-12-26T08:59:23.083Z,96.90
2018-12-26T09:01:53.362Z,93.12
2018-12-26T09:04:23.660Z,93.62
2018-12-26T09:06:53.938Z,93.65
2018-12-26T09:09:24.318Z,95.67
2018-12-26T09:11:54.631Z,95.00
2018-12-26T09:14:25.068Z,92.90
2018-12-26T09:16:55.369Z,92.85
2018-12-26T09:19:25.734Z,94.83
2018-12-26T09:21:56.078Z,98.00
2018-12-26T09:24:28.519Z,99.62
2018-12-26T09:26:58.860Z,98.33
2018-12-26T09:29:29.138Z,94.03
2018-12-26T09:31:59.533Z,101.42
2018-12-26T09:34:29.878Z,105.40
2018-12-26T09:37:00.251Z,108.35
2018-12-26T09:39:30.589Z,115.20
2018-12-26T09:42:00.947Z,108.40
2018-12-26T09:44:31.334Z,103.60
2018-12-26T09:47:01.691Z,98.37
2018-12-26T09:49:31.971Z,94.58
2018-12-26T09:52:02.292Z,93.85
2018-12-26T09:54:32.598Z,91.17
2018-12-26T09:57:02.874Z,90.53
2018-12-26T09:59:33.167Z,91.20
2018-12-26T10:02:03.501Z,92.02
2018-12-26T10:04:33.884Z,93.67
2018-12-26T10:07:04.155Z,87.53
2018-12-26T10:09:34.471Z,92.82
2018-12-26T10:12:04.831Z,91.30
2018-12-26T10:14:35.166Z,87.50
2018-12-26T10:17:05.549Z,87.22
2018-12-26T10:19:35.876Z,89.40
2018-12-26T10:22:25.068Z,88.03
2018-12-26T10:24:55.411Z,95.83
2018-12-26T10:27:26.033Z,92.10
2018-12-26T10:29:56.383Z,95.03
2018-12-26T10:32:26.708Z,91.08
2018-12-26T10:34:57.037Z,80.35
2018-12-26T10:37:27.370Z,80.55
2018-12-26T10:39:57.630Z,80.25
2018-12-26T10:42:27.969Z,82.25
2018-12-26T10:44:58.321Z,81.00
2018-12-26T10:47:28.592Z,80.05
2018-12-26T10:49:58.876Z,77.15
2018-12-26T10:52:29.145Z,77.55
2018-12-26T10:55:18.305Z,78.70
2018-12-26T10:57:48.637Z,76.82
2018-12-26T11:00:19.007Z,77.42
2018-12-26T11:02:49.352Z,77.22
2018-12-26T11:05:19.720Z,75.50
2018-12-26T11:07:50.046Z,74.82
2018-12-26T11:10:20.382Z,73.83
2018-12-26T11:12:50.708Z,74.60
2018-12-26T11:15:20.963Z,74.05
2018-12-26T11:17:51.303Z,72.72
2018-12-26T11:20:21.630Z,72.40
2018-12-26T11:22:51.994Z,71.20
2018-12-26T11:25:22.314Z,71.00
2018-12-26T11:27:52.982Z,70.60
2018-12-26T11:30:43.743Z,71.17
2018-12-26T11:33:14.076Z,70.22
2018-12-26T11:35:44.366Z,68.00
2018-12-26T11:38:14.734Z,68.92
2018-12-26T11:40:45.220Z,68.28
2018-12-26T11:43:15.520Z,65.70
2018-12-26T11:45:45.876Z,66.07
2018-12-26T11:48:16.220Z,65.85
2018-12-26T11:50:46.649Z,65.87
2018-12-26T11:53:16.996Z,66.80
2018-12-26T11:55:47.337Z,65.75
2018-12-26T11:58:17.695Z,65.67
2018-12-26T12:00:48.032Z,63.87
2018-12-26T12:03:18.352Z,63.17
2018-12-26T12:05:48.692Z,62.35
2018-12-26T12:08:19.158Z,61.60
2018-12-26T12:10:50.257Z,62.13
2018-12-26T12:16:28.731Z,63.63
2018-12-26T12:18:59.087Z,59.85
2018-12-26T12:21:29.432Z,62.10
2018-12-26T12:23:59.807Z,58.90
2018-12-26T12:26:30.602Z,59.98
2018-12-26T12:29:00.916Z,57.83
2018-12-26T12:31:31.273Z,57.78
2018-12-26T12:34:01.528Z,60.15
2018-12-26T12:36:31.889Z,57.03
2018-12-26T12:39:40.295Z,58.95
2018-12-26T12:42:10.576Z,57.85
2018-12-26T12:44:40.911Z,57.38
2018-12-26T12:47:11.476Z,56.58
2018-12-26T12:49:41.745Z,54.58
2018-12-26T12:52:12.031Z,55.73
2018-12-26T12:54:42.390Z,55.58
2018-12-26T12:57:12.666Z,55.48
2018-12-26T12:59:44.867Z,54.88
2018-12-26T13:02:34.032Z,55.80
2018-12-26T13:05:06.589Z,53.83
2018-12-26T13:07:36.951Z,54.00
2018-12-26T13:10:07.206Z,54.25
2018-12-26T13:12:37.566Z,52.98
2018-12-26T13:15:07.860Z,52.95
2018-12-26T13:17:38.279Z,52.33
2018-12-26T13:20:09.582Z,51.77
2018-12-26T13:22:39.850Z,51.30
2018-12-26T13:25:10.233Z,52.33
2018-12-26T13:27:40.607Z,49.70
2018-12-26T13:30:22.252Z,48.48
2018-12-26T13:32:52.543Z,51.70
2018-12-26T13:35:22.875Z,52.80
2018-12-26T13:37:53.214Z,55.15
2018-12-26T13:40:23.543Z,54.60
2018-12-26T13:42:53.899Z,57.43
2018-12-26T13:45:24.167Z,54.80
2018-12-26T13:47:56.799Z,55.28
2018-12-26T13:50:27.419Z,59.85
2018-12-26T13:52:57.767Z,58.23
2018-12-26T13:55:28.161Z,62.83
2018-12-26T13:57:58.517Z,60.15
2018-12-26T14:00:28.849Z,63.28
2018-12-26T14:02:59.211Z,62.73
2018-12-26T14:05:29.581Z,60.30
2018-12-26T14:07:59.899Z,61.55
2018-12-26T14:10:49.080Z,63.45
2018-12-26T14:16:23.975Z,66.07
2018-12-26T14:18:54.286Z,62.38
2018-12-26T14:21:24.639Z,62.62
2018-12-26T14:24:13.833Z,62.43
2018-12-26T14:26:56.167Z,71.35
2018-12-26T14:29:26.645Z,68.92
2018-12-26T14:31:57.236Z,70.75
2018-12-26T14:34:28.752Z,71.22
2018-12-26T14:36:59.095Z,71.82
2018-12-26T14:39:29.659Z,73.45
2018-12-26T14:42:00.004Z,75.60
2018-12-26T14:44:30.705Z,73.15
2018-12-26T14:47:01.279Z,72.65
2018-12-26T14:49:31.658Z,71.72
2018-12-26T14:52:02.016Z,79.45
2018-12-26T14:57:27.630Z,89.92
2018-12-26T14:59:58.439Z,98.40
2018-12-26T15:02:48.140Z,92.47
2018-12-26T15:05:20.317Z,97.75
2018-12-26T15:07:50.877Z,97.65
2018-12-26T15:10:22.436Z,98.25
2018-12-26T15:12:52.840Z,83.67
2018-12-26T15:15:23.299Z,70.17
2018-12-26T15:17:54.766Z,74.25
2018-12-26T15:26:36.698Z,82.25
2018-12-26T15:29:07.311Z,88.82
2018-12-26T15:31:38.139Z,83.78
2018-12-26T15:34:08.819Z,85.12
2018-12-26T15:37:00.467Z,92.65
2018-12-26T15:39:31.150Z,92.42
2018-12-26T15:42:01.616Z,92.05
2018-12-26T15:44:32.191Z,96.70
2018-12-26T15:47:07.491Z,105.43
2018-12-26T15:49:37.996Z,99.47
2018-12-26T15:52:10.668Z,103.02
2018-12-26T15:55:01.013Z,103.32
2018-12-26T15:57:31.778Z,99.97
2018-12-26T16:00:02.543Z,101.22
2018-12-26T16:02:33.293Z,99.35
2018-12-26T16:05:03.855Z,107.75
2018-12-26T16:07:34.588Z,106.00
2018-12-26T16:10:05.893Z,104.03
2018-12-26T16:12:36.663Z,105.83
2018-12-26T16:15:10.519Z,101.50
2018-12-26T16:17:41.274Z,104.75
2018-12-26T16:20:12.429Z,100.75
2018-12-26T16:22:43.447Z,96.15
2018-12-26T16:25:14.672Z,96.02
2018-12-26T16:31:10.883Z,88.30
2018-12-26T16:33:41.166Z,86.55
2018-12-26T16:36:12.991Z,98.40
2018-12-26T16:38:54.490Z,103.87
2018-12-26T16:41:24.891Z,97.62
2018-12-26T16:43:56.877Z,99.30
2018-12-26T16:46:27.223Z,100.67
2018-12-26T16:48:57.740Z,98.17
2018-12-26T16:51:28.111Z,99.65
2018-12-26T16:53:58.483Z,95.95
2018-12-26T16:56:28.867Z,99.13
2018-12-26T16:58:59.257Z,96.12
2018-12-26T17:01:32.170Z,99.10
2018-12-26T17:04:02.616Z,97.60
2018-12-26T17:06:35.454Z,96.55
2018-12-26T17:09:09.091Z,92.30
2018-12-26T17:14:30.979Z,93.35
2018-12-26T17:17:12.733Z,95.15
2018-12-26T17:19:43.118Z,97.90
2018-12-26T17:22:13.450Z,95.67
2018-12-26T17:24:43.922Z,97.90
2018-12-26T17:27:14.349Z,97.55
2018-12-26T17:29:44.892Z,96.63
2018-12-26T17:32:15.442Z,97.92
2018-12-26T17:34:46.349Z,101.87
2018-12-26T17:37:49.953Z,100.10
2018-12-26T17:40:21.982Z,99.28
2018-12-26T17:43:18.788Z,99.45
2018-12-26T17:45:49.587Z,96.92
2018-12-26T17:48:20.185Z,99.05
2018-12-26T17:50:51.830Z,98.92
2018-12-26T17:54:00.705Z,101.97
2018-12-26T17:56:45.082Z,100.58
2018-12-26T17:59:53.338Z,100.40
2018-12-26T18:02:45.425Z,100.62
2018-12-26T18:05:17.585Z,100.82
2018-12-26T18:07:50.040Z,104.38
2018-12-26T18:10:21.742Z,107.20
2018-12-26T18:16:19.099Z,108.60
2018-12-26T18:18:49.898Z,108.12
2018-12-26T18:21:20.322Z,110.92
2018-12-26T18:27:14.862Z,112.20
2018-12-26T18:29:46.599Z,110.17
2018-12-26T18:32:17.177Z,112.60
2018-12-26T18:34:47.742Z,114.42
2018-12-26T18:37:18.439Z,112.52
2018-12-26T18:39:48.884Z,120.57
2018-12-26T18:42:19.510Z,120.00
2018-12-26T18:44:50.372Z,122.95
2018-12-26T18:47:23.465Z,116.12
2018-12-26T18:49:53.902Z,119.37
2018-12-26T18:52:24.473Z,121.45
2018-12-26T18:54:54.700Z,117.03
2018-12-26T18:57:25.174Z,115.82
2018-12-26T19:05:55.180Z,107.87
2018-12-26T19:08:25.543Z,105.75
2018-12-26T19:10:55.936Z,106.37
2018-12-26T19:13:26.334Z,108.80
2018-12-26T19:15:57.258Z,115.85
2018-12-26T19:18:46.889Z,114.32
2018-12-26T19:21:17.321Z,111.25
2018-12-26T19:23:48.136Z,111.22
2018-12-26T19:26:18.721Z,108.97
2018-12-26T19:28:49.454Z,110.30
2018-12-26T19:31:20.347Z,110.15
2018-12-26T19:34:00.339Z,110.05
2018-12-26T19:36:32.363Z,108.47
2018-12-26T19:39:02.947Z,106.63
2018-12-26T19:41:37.033Z,105.32
2018-12-26T19:44:07.998Z,105.05
2018-12-26T19:46:57.553Z,101.10
2018-12-26T19:49:28.732Z,102.50
2018-12-26T19:52:18.253Z,99.17
2018-12-26T19:54:49.268Z,101.27
2018-12-26T19:57:22.669Z,101.27
2018-12-26T19:59:53.117Z,105.92
2018-12-26T20:02:23.650Z,109.00
2018-12-26T20:04:54.000Z,105.92
2018-12-26T20:07:26.505Z,104.27
2018-12-26T20:09:56.895Z,104.00
2018-12-26T20:12:46.413Z,105.32
2018-12-26T20:15:35.830Z,103.45
2018-12-26T20:18:06.273Z,103.00
2018-12-26T20:20:36.849Z,104.97
2018-12-26T20:23:07.234Z,103.75
2018-12-26T20:25:37.645Z,101.33
2018-12-26T20:28:08.616Z,101.67
2018-12-26T20:30:43.715Z,104.30
2018-12-26T20:33:14.168Z,106.15
2018-12-26T20:35:47.593Z,106.27
2018-12-26T20:38:19.487Z,107.47
2018-12-26T20:40:49.909Z,98.90
2018-12-26T20:43:20.356Z,95.00
2018-12-26T20:45:50.788Z,94.85
2018-12-26T20:48:22.185Z,92.15
2018-12-26T20:54:59.099Z,91.72
2018-12-26T20:57:29.601Z,91.25
2018-12-26T20:59:59.982Z,93.40
2018-12-26T21:02:30.375Z,93.30
2018-12-26T21:05:00.769Z,92.15
2018-12-26T21:07:31.390Z,89.83
2018-12-26T21:10:02.900Z,91.53
2018-12-26T21:12:34.804Z,91.32
2018-12-26T21:15:05.160Z,91.72
2018-12-26T21:17:35.528Z,93.55
2018-12-26T21:20:07.155Z,106.12
2018-12-26T21:22:37.491Z,123.22
2018-12-26T21:25:09.146Z,112.77
2018-12-26T21:27:39.426Z,128.40
2018-12-26T21:30:12.796Z,121.82
2018-12-26T21:32:43.233Z,130.07
2018-12-26T21:35:15.158Z,122.95
2018-12-26T21:37:45.433Z,125.33
2018-12-26T21:40:17.353Z,131.07
2018-12-26T21:42:49.615Z,133.30
2018-12-26T21:45:19.992Z,127.82
2018-12-26T21:47:50.342Z,127.50
2018-12-26T21:50:20.717Z,131.07
2018-12-26T21:52:53.243Z,123.78
2018-12-26T21:55:23.592Z,122.70
2018-12-26T21:57:54.363Z,126.95
2018-12-26T22:00:24.705Z,124.70
2018-12-26T22:02:55.078Z,123.38
2018-12-26T22:05:25.427Z,123.02
2018-12-26T22:07:55.844Z,118.85
2018-12-26T22:10:26.190Z,117.13
2018-12-26T22:12:56.562Z,113.92
2018-12-26T22:15:26.965Z,118.20
2018-12-26T22:17:57.266Z,114.90
2018-12-26T22:20:28.360Z,112.90
2018-12-26T22:22:58.732Z,112.57
2018-12-26T22:25:29.097Z,110.52
2018-12-26T22:27:59.879Z,112.88
2018-12-26T22:30:30.353Z,109.67
2018-12-26T22:33:01.044Z,108.47
2018-12-26T22:35:32.556Z,105.78
2018-12-26T22:38:22.504Z,101.53
2018-12-26T22:44:07.860Z,100.67
2018-12-26T22:46:38.165Z,100.82
2018-12-26T22:52:13.521Z,96.10
2018-12-26T22:54:43.844Z,96.65
2018-12-26T22:57:14.441Z,96.40
2018-12-26T22:59:44.698Z,96.35
2018-12-26T23:02:15.060Z,94.25
2018-12-26T23:04:45.399Z,91.25
2018-12-26T23:07:15.783Z,91.72
2018-12-26T23:09:46.108Z,92.27
2018-12-26T23:12:16.447Z,90.50
2018-12-26T23:14:46.804Z,86.67
2018-12-26T23:17:17.193Z,87.88
2018-12-26T23:19:47.711Z,85.30
2018-12-26T23:22:18.039Z,86.12
2018-12-26T23:24:48.395Z,82.40
2018-12-26T23:27:18.733Z,82.95
2018-12-26T23:29:49.095Z,82.02
2018-12-26T23:32:19.361Z,80.45
2018-12-26T23:34:49.719Z,79.70
2018-12-26T23:37:20.076Z,78.90
2018-12-26T23:39:50.417Z,78.40
2018-12-26T23:42:20.725Z,74.58
2018-12-26T23:44:51.053Z,75.62
2018-12-26T23:50:16.590Z,73.97
2018-12-26T23:52:46.862Z,73.55
2018-12-26T23:55:17.153Z,73.47
2018-12-26T23:57:47.472Z,72.50
